This is the latest recevied weather packets stored in our database for station/object SQ7KHZ-10. If no packets are shown the sender has not sent any weather packets the latest 1 day(s).
| Time | Temp. | Humidity | Pressure | Rain* | Wind** | Luminosity | Snow |
|---|---|---|---|---|---|---|---|
| 1778004585 | 20.56° C | 34% | 1005.5 hPa | 0 mm | 0 m/s | - | - |
| 1778003385 | 22.22° C | 33% | 1005.3 hPa | 0 mm | 0 m/s | - | - |
| 1778002185 | 22.78° C | 34% | 1005.1 hPa | 0 mm | 0 m/s | - | - |
| 1778000984 | 23.89° C | 32% | 1005.2 hPa | 0 mm | 0 m/s | - | - |
| 1777999780 | 25.56° C | 26% | 1005.2 hPa | 0 mm | 0.89 m/s, 128° | - | - |
| 1777998574 | 26.11° C | 26% | 1005.3 hPa | 0 mm | 0 m/s | - | - |
| 1777997357 | 26.67° C | 23% | 1005.3 hPa | 0 mm | 0.89 m/s, 142° | - | - |
| 1777996147 | 26.67° C | 23% | 1005.5 hPa | 0 mm | 1.34 m/s, 213° | - | - |
| 1777994938 | 26.11° C | 24% | 1005.4 hPa | 0 mm | 1.34 m/s, 93° | - | - |
| 1777993727 | 25.56° C | 31% | 1005.5 hPa | 0 mm | 3.13 m/s, 162° | - | - |
| 1777992517 | 26.11° C | 34% | 1005.9 hPa | 0 mm | 1.79 m/s, 140° | - | - |
| 1777991316 | 24.44° C | 35% | 1006.1 hPa | 0 mm | 1.79 m/s, 84° | - | - |
| 1777990105 | 25.56° C | 34% | 1006.3 hPa | 0 mm | 1.79 m/s, 133° | - | - |
| 1777988883 | 24.44° C | 35% | 1006.6 hPa | 0 mm | 1.34 m/s, 183° | - | - |
| 1777987673 | 23.89° C | 36% | 1006.6 hPa | 0 mm | 0.89 m/s, 129° | - | - |
| 1777986789 | 24.44° C | 35% | 1006.8 hPa | 0 mm | 3.13 m/s, 71° | - | - |
| 1777986001 | 25° C | 36% | 1006.9 hPa | 0 mm | 1.79 m/s, 109° | - | - |
| 1777985165 | 25° C | 36% | 1007 hPa | 0 mm | 0 m/s | - | - |
| 1777983950 | 26.11° C | 29% | 1007.2 hPa | 0 mm | 2.24 m/s, 176° | - | - |
| 1777982738 | 25.56° C | 31% | 1007.4 hPa | 0 mm | 1.34 m/s, 46° | - | - |
| 1777981527 | 25° C | 37% | 1007.5 hPa | 0 mm | 2.24 m/s, 114° | - | - |
| 1777980327 | 25° C | 32% | 1007.6 hPa | 0 mm | 1.34 m/s, 112° | - | - |
| 1777979117 | 24.44° C | 35% | 1007.9 hPa | 0 mm | 1.34 m/s, 100° | - | - |
| 1777977915 | 25.56° C | 32% | 1008 hPa | 0 mm | 0.89 m/s, 103° | - | - |
| 1777976704 | 26.11° C | 32% | 1008.2 hPa | 0 mm | 2.24 m/s, 183° | - | - |
* Rain latest hour (hover to see other rain measurements)
** Current wind speed in m/s (hover to see current wind gust speed)